Airfield :
LOGIN :

Register | Disclaimer

   EN    FR    IT 

 










Legend :    VFR   Marginal VFR   IFR   Intensive IFR   Very Intensive IFR
Visi :
Ceiling :
>= 8 km
>= 3000ft
5 to 8 km
1000 to 3000 ft
1500m to 5 km
500 to 1000 ft
800 to 1500m
200 to 500 ft
< 800m
< 200 ft
Symbols :   Thunderstorms  Fog  Heavy snow  Heavy precipitations  Wind > 20 kt
SIGMETs :     Misc.  Thunderstorms  Icing  Turbulence  Mountain Waves  Volcanic Ashes







- Airport Elevation : 1521 ft
- IATA code : NCY
- Download approach charts


LFLP - Annecy

CURRENT METAR :
  • 252000Z AUTO 01012KT CAVOK 07/M03 Q1022 NOSIG

EXPIRED METARs :
  • 251930Z AUTO 02014G24KT CAVOK 07/M03 Q1022 NOSIG
  • 251900Z AUTO 01014KT 340V040 CAVOK 07/M03 Q1022 TEMPO 02015G25KT
  • 251830Z AUTO 36013G25KT 330V030 CAVOK 08/M03 Q1022 NOSIG
  • 251800Z AUTO 02015KT CAVOK 08/M05 Q1021 BECMG 02015G25KT
  • 251730Z AUTO 02016KT CAVOK 09/M04 Q1021 BECMG 02015G25KT

TAF TAF LFLP
Valid from the 25 at 15:00 until the 26 at 15:00 UTC


251400Z 2515/2615 02015G25KT CAVOK
BECMG 2520/2523 02010KT BKN040
BECMG 2609/2612 02015G25KT CAVOK
No reported NOTAMs for that airfield.
1 SIGMET reported for the Marseille FIR (LFMM) :
 
Severe turbulence
LFMM SIGMET 5 VALID 252000/260000 LFPW
LFMM MARSEILLE FIR/UIR SEV TURB FCST WI N4630 E00630 - N4630 E00700 - N4500 E00700 - N4230 E00515 - N4200 E00415 - N4215 E00230 - N4345 E00245 - N4515 E00330 - N4630 E00630 SFC/FL080 STNR NC=



MET'MAP, your aeronautical weather chart ! - Copyright ORBIFLY December 2007 - Disclaimer

ORBIFLY MET'MAP TEAM :

Programming & Development : Alexandra Zaïnal
Concept & Development : Baudouin d'Aumeries
Co-Development & Prog : Marc-Olivier Méhu
Technical & hardware support : Manuel Goepfert

Contact : metmap@orbifly.com




SOURCES & CREDITS :

   NOAA